sensor_id;sensor_type;location;lat;lon;timestamp;pressure;altitude;pressure_sealevel;temperature;humidity
26699;BME280;14313;50.892;13.756;2022-09-17T00:00:39;96736.16;;;13.94;66.73
26699;BME280;14313;50.892;13.756;2022-09-17T00:03:05;96743.94;;;13.61;66.85
26699;BME280;14313;50.892;13.756;2022-09-17T00:05:31;96748.75;;;13.51;67.35
26699;BME280;14313;50.892;13.756;2022-09-17T00:07:56;96741.88;;;13.57;67.63
26699;BME280;14313;50.892;13.756;2022-09-17T00:10:22;96755.19;;;13.70;67.44
26699;BME280;14313;50.892;13.756;2022-09-17T00:12:48;96749.09;;;13.70;67.25
26699;BME280;14313;50.892;13.756;2022-09-17T00:15:14;96759.66;;;13.63;67.54
26699;BME280;14313;50.892;13.756;2022-09-17T00:17:39;96754.28;;;13.91;66.89
26699;BME280;14313;50.892;13.756;2022-09-17T00:20:06;96752.50;;;13.98;66.32
26699;BME280;14313;50.892;13.756;2022-09-17T00:22:34;96758.06;;;13.75;66.94
26699;BME280;14313;50.892;13.756;2022-09-17T00:25:00;96755.41;;;13.75;67.34
26699;BME280;14313;50.892;13.756;2022-09-17T00:27:25;96753.22;;;13.85;67.03
26699;BME280;14313;50.892;13.756;2022-09-17T00:29:50;96748.28;;;13.69;67.44
26699;BME280;14313;50.892;13.756;2022-09-17T00:32:16;96769.53;;;13.48;67.77
26699;BME280;14313;50.892;13.756;2022-09-17T00:34:42;96751.16;;;13.81;67.38
26699;BME280;14313;50.892;13.756;2022-09-17T00:37:07;96739.97;;;13.79;67.38
26699;BME280;14313;50.892;13.756;2022-09-17T00:39:33;96735.16;;;13.61;67.64
26699;BME280;14313;50.892;13.756;2022-09-17T00:41:58;96745.25;;;13.44;68.11
26699;BME280;14313;50.892;13.756;2022-09-17T00:47:00;96741.94;;;13.70;67.96
26699;BME280;14313;50.892;13.756;2022-09-17T00:49:28;96740.47;;;13.61;68.19
26699;BME280;14313;50.892;13.756;2022-09-17T00:52:00;96746.50;;;13.83;67.33
26699;BME280;14313;50.892;13.756;2022-09-17T00:54:28;96746.34;;;13.29;68.45
26699;BME280;14313;50.892;13.756;2022-09-17T00:56:55;96738.13;;;13.45;68.51
26699;BME280;14313;50.892;13.756;2022-09-17T00:59:22;96738.78;;;13.88;67.75
26699;BME280;14313;50.892;13.756;2022-09-17T01:01:48;96723.84;;;13.80;67.47
26699;BME280;14313;50.892;13.756;2022-09-17T01:04:24;96725.72;;;13.80;67.69
26699;BME280;14313;50.892;13.756;2022-09-17T01:09:55;96729.97;;;13.46;68.97
26699;BME280;14313;50.892;13.756;2022-09-17T01:12:49;96733.06;;;13.50;68.59
26699;BME280;14313;50.892;13.756;2022-09-17T01:15:26;96729.91;;;13.68;68.02
26699;BME280;14313;50.892;13.756;2022-09-17T01:18:20;96732.47;;;13.95;67.29
26699;BME280;14313;50.892;13.756;2022-09-17T01:21:11;96737.09;;;13.74;68.45
26699;BME280;14313;50.892;13.756;2022-09-17T01:29:12;96738.81;;;13.53;68.61
26699;BME280;14313;50.892;13.756;2022-09-17T01:31:47;96743.88;;;13.55;68.19
26699;BME280;14313;50.892;13.756;2022-09-17T01:34:37;96749.81;;;13.57;68.77
26699;BME280;14313;50.892;13.756;2022-09-17T01:37:14;96749.41;;;13.53;68.54
26699;BME280;14313;50.892;13.756;2022-09-17T01:39:49;96739.88;;;14.06;67.35
26699;BME280;14313;50.892;13.756;2022-09-17T01:42:26;96749.47;;;13.66;68.50
26699;BME280;14313;50.892;13.756;2022-09-17T01:45:11;96744.94;;;14.01;67.55
26699;BME280;14313;50.892;13.756;2022-09-17T01:47:46;96736.84;;;14.09;66.87
26699;BME280;14313;50.892;13.756;2022-09-17T01:50:19;96742.41;;;13.80;68.10
26699;BME280;14313;50.892;13.756;2022-09-17T01:52:49;96741.44;;;13.53;68.46
26699;BME280;14313;50.892;13.756;2022-09-17T01:55:17;96735.84;;;13.70;68.48
26699;BME280;14313;50.892;13.756;2022-09-17T02:00:36;96737.09;;;13.74;68.52
26699;BME280;14313;50.892;13.756;2022-09-17T02:03:09;96733.13;;;13.97;67.15
26699;BME280;14313;50.892;13.756;2022-09-17T02:05:55;96738.22;;;13.99;67.68
26699;BME280;14313;50.892;13.756;2022-09-17T02:08:25;96735.56;;;13.99;67.56
26699;BME280;14313;50.892;13.756;2022-09-17T02:10:57;96736.91;;;13.82;68.39
26699;BME280;14313;50.892;13.756;2022-09-17T02:13:37;96739.09;;;13.72;68.02
26699;BME280;14313;50.892;13.756;2022-09-17T02:16:10;96746.56;;;13.96;67.17
26699;BME280;14313;50.892;13.756;2022-09-17T02:18:48;96752.13;;;13.66;68.37
26699;BME280;14313;50.892;13.756;2022-09-17T02:21:21;96743.16;;;13.68;68.45
26699;BME280;14313;50.892;13.756;2022-09-17T02:23:58;96732.94;;;14.05;67.15
26699;BME280;14313;50.892;13.756;2022-09-17T02:26:28;96740.19;;;13.49;69.20
26699;BME280;14313;50.892;13.756;2022-09-17T02:28:57;96742.53;;;13.65;69.22
26699;BME280;14313;50.892;13.756;2022-09-17T02:31:24;96732.63;;;13.81;68.66
26699;BME280;14313;50.892;13.756;2022-09-17T02:33:51;96737.13;;;13.87;68.60
26699;BME280;14313;50.892;13.756;2022-09-17T02:36:18;96741.00;;;13.84;68.52
26699;BME280;14313;50.892;13.756;2022-09-17T02:38:45;96735.34;;;13.53;69.11
26699;BME280;14313;50.892;13.756;2022-09-17T02:44:00;96738.28;;;13.71;69.19
26699;BME280;14313;50.892;13.756;2022-09-17T02:46:52;96738.91;;;14.14;68.07
26699;BME280;14313;50.892;13.756;2022-09-17T02:49:37;96741.53;;;13.66;69.51
26699;BME280;14313;50.892;13.756;2022-09-17T02:52:20;96734.38;;;13.67;69.01
26699;BME280;14313;50.892;13.756;2022-09-17T02:55:18;96743.81;;;13.76;69.45
26699;BME280;14313;50.892;13.756;2022-09-17T02:57:59;96733.00;;;14.19;68.06
26699;BME280;14313;50.892;13.756;2022-09-17T03:00:30;96733.75;;;13.65;69.54
26699;BME280;14313;50.892;13.756;2022-09-17T03:03:08;96728.22;;;14.01;68.91
26699;BME280;14313;50.892;13.756;2022-09-17T03:05:36;96741.00;;;13.84;68.78
26699;BME280;14313;50.892;13.756;2022-09-17T03:08:02;96743.16;;;14.08;68.87
26699;BME280;14313;50.892;13.756;2022-09-17T03:10:28;96742.53;;;13.65;70.06
26699;BME280;14313;50.892;13.756;2022-09-17T03:12:56;96739.50;;;13.69;70.27
26699;BME280;14313;50.892;13.756;2022-09-17T03:15:22;96731.56;;;13.69;69.69
26699;BME280;14313;50.892;13.756;2022-09-17T03:17:47;96738.00;;;13.94;69.35
26699;BME280;14313;50.892;13.756;2022-09-17T03:20:12;96749.88;;;14.04;69.10
26699;BME280;14313;50.892;13.756;2022-09-17T03:22:40;96745.16;;;13.59;70.49
26699;BME280;14313;50.892;13.756;2022-09-17T03:25:06;96750.47;;;13.65;70.56
26699;BME280;14313;50.892;13.756;2022-09-17T03:27:31;96756.50;;;13.87;70.36
26699;BME280;14313;50.892;13.756;2022-09-17T03:29:56;96755.88;;;13.51;71.02
26699;BME280;14313;50.892;13.756;2022-09-17T03:32:22;96754.34;;;13.63;71.22
26699;BME280;14313;50.892;13.756;2022-09-17T03:34:47;96749.63;;;13.58;71.27
26699;BME280;14313;50.892;13.756;2022-09-17T03:37:12;96747.81;;;13.65;71.04
26699;BME280;14313;50.892;13.756;2022-09-17T03:39:38;96758.88;;;13.69;71.12
26699;BME280;14313;50.892;13.756;2022-09-17T03:42:03;96769.50;;;14.10;70.10
26699;BME280;14313;50.892;13.756;2022-09-17T03:44:29;96749.56;;;13.86;69.98
26699;BME280;14313;50.892;13.756;2022-09-17T03:46:54;96747.69;;;13.74;71.10
26699;BME280;14313;50.892;13.756;2022-09-17T03:49:19;96754.94;;;13.65;71.76
26699;BME280;14313;50.892;13.756;2022-09-17T03:51:44;96748.94;;;13.78;71.11
26699;BME280;14313;50.892;13.756;2022-09-17T03:54:10;96759.94;;;13.75;71.05
26699;BME280;14313;50.892;13.756;2022-09-17T03:56:35;96756.22;;;13.41;72.44
26699;BME280;14313;50.892;13.756;2022-09-17T03:59:01;96756.88;;;13.43;72.78
26699;BME280;14313;50.892;13.756;2022-09-17T04:01:26;96751.00;;;13.54;72.56
26699;BME280;14313;50.892;13.756;2022-09-17T04:03:52;96758.19;;;13.95;71.04
26699;BME280;14313;50.892;13.756;2022-09-17T04:06:18;96753.22;;;13.79;71.73
26699;BME280;14313;50.892;13.756;2022-09-17T04:08:43;96748.75;;;13.86;71.95
26699;BME280;14313;50.892;13.756;2022-09-17T04:11:09;96759.34;;;13.79;72.12
26699;BME280;14313;50.892;13.756;2022-09-17T04:13:34;96757.03;;;13.70;71.73
26699;BME280;14313;50.892;13.756;2022-09-17T04:16:00;96757.69;;;13.78;72.34
26699;BME280;14313;50.892;13.756;2022-09-17T04:18:25;96764.47;;;13.53;73.17
26699;BME280;14313;50.892;13.756;2022-09-17T04:20:50;96759.28;;;13.73;73.25
26699;BME280;14313;50.892;13.756;2022-09-17T04:23:16;96761.53;;;13.41;73.78
26699;BME280;14313;50.892;13.756;2022-09-17T04:25:41;96769.06;;;13.44;74.54
26699;BME280;14313;50.892;13.756;2022-09-17T04:28:07;96763.53;;;13.39;75.11
26699;BME280;14313;50.892;13.756;2022-09-17T04:30:32;96764.72;;;13.64;74.01
26699;BME280;14313;50.892;13.756;2022-09-17T04:32:58;96761.53;;;13.76;74.07
26699;BME280;14313;50.892;13.756;2022-09-17T04:35:23;96760.75;;;13.47;75.18
26699;BME280;14313;50.892;13.756;2022-09-17T04:37:52;96757.81;;;13.36;75.91
26699;BME280;14313;50.892;13.756;2022-09-17T04:40:18;96754.34;;;13.35;75.81
26699;BME280;14313;50.892;13.756;2022-09-17T04:42:43;96759.03;;;13.33;76.70
26699;BME280;14313;50.892;13.756;2022-09-17T04:45:09;96760.72;;;13.41;76.06
26699;BME280;14313;50.892;13.756;2022-09-17T04:47:37;96759.84;;;13.61;75.78
26699;BME280;14313;50.892;13.756;2022-09-17T04:50:04;96763.63;;;13.18;77.39
26699;BME280;14313;50.892;13.756;2022-09-17T04:52:29;96764.84;;;13.50;76.89
26699;BME280;14313;50.892;13.756;2022-09-17T04:54:54;96760.47;;;13.36;77.19
26699;BME280;14313;50.892;13.756;2022-09-17T04:57:19;96763.53;;;13.33;77.44
26699;BME280;14313;50.892;13.756;2022-09-17T04:59:45;96767.38;;;13.58;76.16
26699;BME280;14313;50.892;13.756;2022-09-17T05:02:10;96758.41;;;13.65;76.05
26699;BME280;14313;50.892;13.756;2022-09-17T05:04:35;96761.28;;;13.64;76.33
26699;BME280;14313;50.892;13.756;2022-09-17T05:07:01;96765.13;;;13.61;76.03
26699;BME280;14313;50.892;13.756;2022-09-17T05:09:26;96762.47;;;13.27;77.83
26699;BME280;14313;50.892;13.756;2022-09-17T05:11:52;96764.38;;;13.40;77.72
26699;BME280;14313;50.892;13.756;2022-09-17T05:14:17;96772.28;;;13.33;78.27
26699;BME280;14313;50.892;13.756;2022-09-17T05:16:42;96773.19;;;13.47;77.85
26699;BME280;14313;50.892;13.756;2022-09-17T05:19:08;96772.44;;;13.59;78.25
26699;BME280;14313;50.892;13.756;2022-09-17T05:21:33;96779.44;;;13.39;79.20
26699;BME280;14313;50.892;13.756;2022-09-17T05:23:58;96774.94;;;13.33;79.75
26699;BME280;14313;50.892;13.756;2022-09-17T05:26:25;96771.53;;;13.46;79.10
26699;BME280;14313;50.892;13.756;2022-09-17T05:28:51;96771.41;;;13.26;80.33
26699;BME280;14313;50.892;13.756;2022-09-17T05:31:16;96766.09;;;13.26;79.67
26699;BME280;14313;50.892;13.756;2022-09-17T05:33:41;96772.56;;;13.45;78.93
26699;BME280;14313;50.892;13.756;2022-09-17T05:36:06;96768.41;;;13.98;76.91
26699;BME280;14313;50.892;13.756;2022-09-17T05:38:32;96768.59;;;13.34;80.18
26699;BME280;14313;50.892;13.756;2022-09-17T05:40:57;96775.88;;;13.53;80.06
26699;BME280;14313;50.892;13.756;2022-09-17T05:43:22;96768.13;;;13.52;80.36
26699;BME280;14313;50.892;13.756;2022-09-17T05:45:48;96772.41;;;13.25;80.28
26699;BME280;14313;50.892;13.756;2022-09-17T05:48:14;96770.63;;;13.60;79.88
26699;BME280;14313;50.892;13.756;2022-09-17T05:50:39;96771.31;;;13.75;79.20
26699;BME280;14313;50.892;13.756;2022-09-17T05:53:07;96771.19;;;13.49;80.48
26699;BME280;14313;50.892;13.756;2022-09-17T05:55:34;96776.47;;;13.49;80.66
26699;BME280;14313;50.892;13.756;2022-09-17T05:57:59;96775.19;;;13.38;80.95
26699;BME280;14313;50.892;13.756;2022-09-17T06:00:25;96770.47;;;13.40;80.98
26699;BME280;14313;50.892;13.756;2022-09-17T06:02:56;96777.25;;;13.77;79.44
26699;BME280;14313;50.892;13.756;2022-09-17T06:05:23;96779.59;;;13.93;78.49
26699;BME280;14313;50.892;13.756;2022-09-17T06:07:48;96782.78;;;14.23;76.84
26699;BME280;14313;50.892;13.756;2022-09-17T06:10:14;96783.75;;;14.09;77.39
26699;BME280;14313;50.892;13.756;2022-09-17T06:12:39;96779.22;;;14.03;78.30
26699;BME280;14313;50.892;13.756;2022-09-17T06:15:05;96779.28;;;13.75;79.58
26699;BME280;14313;50.892;13.756;2022-09-17T06:17:35;96781.84;;;13.62;80.55
26699;BME280;14313;50.892;13.756;2022-09-17T06:20:01;96776.47;;;14.24;78.75
26699;BME280;14313;50.892;13.756;2022-09-17T06:22:27;96774.56;;;14.05;79.28
26699;BME280;14313;50.892;13.756;2022-09-17T06:24:52;96769.41;;;13.97;80.37
26699;BME280;14313;50.892;13.756;2022-09-17T06:27:17;96768.34;;;13.85;80.50
26699;BME280;14313;50.892;13.756;2022-09-17T06:29:42;96774.47;;;13.92;80.50
26699;BME280;14313;50.892;13.756;2022-09-17T06:32:08;96772.25;;;13.95;80.36
26699;BME280;14313;50.892;13.756;2022-09-17T06:34:38;96764.81;;;13.78;81.49
26699;BME280;14313;50.892;13.756;2022-09-17T06:37:03;96770.13;;;13.78;81.35
26699;BME280;14313;50.892;13.756;2022-09-17T06:39:28;96768.84;;;13.67;82.39
26699;BME280;14313;50.892;13.756;2022-09-17T06:41:54;96765.47;;;13.80;82.07
26699;BME280;14313;50.892;13.756;2022-09-17T06:44:19;96769.06;;;13.72;82.54
26699;BME280;14313;50.892;13.756;2022-09-17T06:46:48;96775.13;;;14.00;82.18
26699;BME280;14313;50.892;13.756;2022-09-17T06:49:13;96782.81;;;13.54;83.49
26699;BME280;14313;50.892;13.756;2022-09-17T06:51:41;96776.72;;;13.60;83.25
26699;BME280;14313;50.892;13.756;2022-09-17T06:54:07;96784.97;;;13.44;83.12
26699;BME280;14313;50.892;13.756;2022-09-17T06:56:32;96775.84;;;13.47;84.78
26699;BME280;14313;50.892;13.756;2022-09-17T06:58:58;96777.91;;;13.51;85.41
26699;BME280;14313;50.892;13.756;2022-09-17T07:01:24;96775.78;;;13.40;85.50
26699;BME280;14313;50.892;13.756;2022-09-17T07:03:49;96777.03;;;13.44;85.65
26699;BME280;14313;50.892;13.756;2022-09-17T07:06:14;96767.66;;;13.76;85.26
26699;BME280;14313;50.892;13.756;2022-09-17T07:08:40;96773.28;;;13.94;84.96
26699;BME280;14313;50.892;13.756;2022-09-17T07:11:06;96776.56;;;13.62;85.41
26699;BME280;14313;50.892;13.756;2022-09-17T07:13:32;96766.09;;;13.88;84.83
26699;BME280;14313;50.892;13.756;2022-09-17T07:15:59;96762.88;;;13.93;84.65
26699;BME280;14313;50.892;13.756;2022-09-17T07:18:26;96773.19;;;13.75;84.58
26699;BME280;14313;50.892;13.756;2022-09-17T07:20:59;96785.25;;;13.90;84.84
26699;BME280;14313;50.892;13.756;2022-09-17T07:23:29;96784.50;;;13.96;84.62
26699;BME280;14313;50.892;13.756;2022-09-17T07:25:57;96788.50;;;13.79;84.85
26699;BME280;14313;50.892;13.756;2022-09-17T07:28:24;96788.50;;;13.79;84.94
26699;BME280;14313;50.892;13.756;2022-09-17T07:30:50;96803.94;;;13.76;85.80
26699;BME280;14313;50.892;13.756;2022-09-17T07:33:18;96796.47;;;13.86;85.21
26699;BME280;14313;50.892;13.756;2022-09-17T07:35:54;96804.69;;;13.97;85.38
26699;BME280;14313;50.892;13.756;2022-09-17T07:38:21;96806.34;;;13.98;84.68
26699;BME280;14313;50.892;13.756;2022-09-17T07:41:02;96822.53;;;14.10;84.54
26699;BME280;14313;50.892;13.756;2022-09-17T07:43:30;96826.72;;;13.63;86.05
26699;BME280;14313;50.892;13.756;2022-09-17T07:45:57;96830.47;;;14.17;84.00
26699;BME280;14313;50.892;13.756;2022-09-17T07:48:23;96828.78;;;14.02;83.45
26699;BME280;14313;50.892;13.756;2022-09-17T07:50:50;96840.03;;;14.11;83.32
26699;BME280;14313;50.892;13.756;2022-09-17T07:53:15;96845.94;;;14.06;82.98
26699;BME280;14313;50.892;13.756;2022-09-17T07:55:41;96848.47;;;13.87;84.83
26699;BME280;14313;50.892;13.756;2022-09-17T07:58:06;96854.63;;;14.28;83.20
26699;BME280;14313;50.892;13.756;2022-09-17T08:00:32;96861.06;;;14.40;82.61
26699;BME280;14313;50.892;13.756;2022-09-17T08:02:57;96863.44;;;14.35;82.10
26699;BME280;14313;50.892;13.756;2022-09-17T08:05:23;96869.78;;;14.06;83.15
26699;BME280;14313;50.892;13.756;2022-09-17T08:07:50;96859.31;;;14.61;81.17
26699;BME280;14313;50.892;13.756;2022-09-17T08:10:16;96861.94;;;14.26;82.38
26699;BME280;14313;50.892;13.756;2022-09-17T08:12:46;96860.22;;;14.40;81.91
26699;BME280;14313;50.892;13.756;2022-09-17T08:15:11;96871.69;;;14.47;80.87
26699;BME280;14313;50.892;13.756;2022-09-17T08:17:36;96875.19;;;14.54;80.09
26699;BME280;14313;50.892;13.756;2022-09-17T08:20:02;96880.88;;;14.44;80.72
26699;BME280;14313;50.892;13.756;2022-09-17T08:22:27;96874.00;;;14.57;80.39
26699;BME280;14313;50.892;13.756;2022-09-17T08:24:52;96883.56;;;14.58;80.09
26699;BME280;14313;50.892;13.756;2022-09-17T08:27:18;96883.19;;;14.67;79.45
26699;BME280;14313;50.892;13.756;2022-09-17T08:29:43;96883.97;;;14.55;79.23
26699;BME280;14313;50.892;13.756;2022-09-17T08:32:09;96875.72;;;14.90;77.94
26699;BME280;14313;50.892;13.756;2022-09-17T08:34:34;96882.84;;;14.77;78.56
26699;BME280;14313;50.892;13.756;2022-09-17T08:37:01;96887.94;;;14.78;78.06
26699;BME280;14313;50.892;13.756;2022-09-17T08:39:27;96895.94;;;14.85;77.62
26699;BME280;14313;50.892;13.756;2022-09-17T08:42:07;96889.88;;;15.11;75.92
26699;BME280;14313;50.892;13.756;2022-09-17T08:44:39;96893.03;;;14.67;76.89
26699;BME280;14313;50.892;13.756;2022-09-17T08:47:25;96885.44;;;15.51;75.68
26699;BME280;14313;50.892;13.756;2022-09-17T08:49:54;96891.53;;;15.25;76.32
26699;BME280;14313;50.892;13.756;2022-09-17T08:52:47;96891.44;;;15.59;75.95
26699;BME280;14313;50.892;13.756;2022-09-17T08:58:22;96885.47;;;15.90;73.36
26699;BME280;14313;50.892;13.756;2022-09-17T09:06:22;96883.06;;;16.73;69.55
26699;BME280;14313;50.892;13.756;2022-09-17T09:08:57;96887.47;;;16.34;70.71
26699;BME280;14313;50.892;13.756;2022-09-17T09:11:26;96891.81;;;16.86;69.07
26699;BME280;14313;50.892;13.756;2022-09-17T09:13:55;96899.91;;;16.47;68.57
26699;BME280;14313;50.892;13.756;2022-09-17T09:16:24;96902.03;;;16.18;69.53
26699;BME280;14313;50.892;13.756;2022-09-17T09:18:53;96895.31;;;15.90;72.10
26699;BME280;14313;50.892;13.756;2022-09-17T09:21:25;96898.56;;;15.65;71.74
26699;BME280;14313;50.892;13.756;2022-09-17T09:26:43;96916.56;;;16.09;71.44
26699;BME280;14313;50.892;13.756;2022-09-17T09:32:11;96926.72;;;16.58;69.61
26699;BME280;14313;50.892;13.756;2022-09-17T09:34:41;96921.75;;;17.26;67.72
26699;BME280;14313;50.892;13.756;2022-09-17T09:37:34;96920.56;;;16.71;68.54
26699;BME280;14313;50.892;13.756;2022-09-17T09:42:45;96915.09;;;16.46;67.20
26699;BME280;14313;50.892;13.756;2022-09-17T09:45:14;96912.09;;;17.63;65.51
26699;BME280;14313;50.892;13.756;2022-09-17T09:47:58;96910.25;;;17.64;63.51
26699;BME280;14313;50.892;13.756;2022-09-17T09:53:52;96896.59;;;17.16;64.83
26699;BME280;14313;50.892;13.756;2022-09-17T09:56:56;96896.91;;;16.88;66.19
26699;BME280;14313;50.892;13.756;2022-09-17T09:59:23;96904.13;;;17.25;65.55
26699;BME280;14313;50.892;13.756;2022-09-17T10:01:49;96902.19;;;18.20;63.81
26699;BME280;14313;50.892;13.756;2022-09-17T10:04:17;96889.44;;;18.22;60.75
26699;BME280;14313;50.892;13.756;2022-09-17T10:06:45;96904.88;;;19.11;60.17
26699;BME280;14313;50.892;13.756;2022-09-17T10:09:13;96898.88;;;19.45;58.60
26699;BME280;14313;50.892;13.756;2022-09-17T10:11:39;96906.00;;;19.03;59.08
26699;BME280;14313;50.892;13.756;2022-09-17T10:14:21;96910.66;;;16.91;67.30
26699;BME280;14313;50.892;13.756;2022-09-17T10:16:47;96911.59;;;15.41;74.99
26699;BME280;14313;50.892;13.756;2022-09-17T10:19:19;96905.41;;;15.07;77.48
26699;BME280;14313;50.892;13.756;2022-09-17T10:21:49;96917.81;;;14.87;78.83
26699;BME280;14313;50.892;13.756;2022-09-17T10:24:24;96909.28;;;15.11;77.73
26699;BME280;14313;50.892;13.756;2022-09-17T10:26:51;96911.06;;;15.85;76.21
26699;BME280;14313;50.892;13.756;2022-09-17T10:29:25;96898.53;;;16.95;73.26
26699;BME280;14313;50.892;13.756;2022-09-17T10:31:54;96904.41;;;18.05;66.73
26699;BME280;14313;50.892;13.756;2022-09-17T10:34:27;96899.31;;;19.12;64.97
26699;BME280;14313;50.892;13.756;2022-09-17T10:36:54;96899.22;;;20.72;61.10
26699;BME280;14313;50.892;13.756;2022-09-17T10:39:29;96908.22;;;21.17;55.67
26699;BME280;14313;50.892;13.756;2022-09-17T10:41:58;96902.81;;;19.43;60.78
26699;BME280;14313;50.892;13.756;2022-09-17T10:44:29;96906.06;;;18.24;63.45
26699;BME280;14313;50.892;13.756;2022-09-17T10:47:02;96916.38;;;17.33;67.76
26699;BME280;14313;50.892;13.756;2022-09-17T10:49:37;96907.28;;;17.09;68.03
26699;BME280;14313;50.892;13.756;2022-09-17T10:52:39;96904.97;;;16.75;68.17
26699;BME280;14313;50.892;13.756;2022-09-17T10:57:56;96904.28;;;16.15;70.84
26699;BME280;14313;50.892;13.756;2022-09-17T11:00:29;96905.50;;;16.26;70.95
26699;BME280;14313;50.892;13.756;2022-09-17T11:03:24;96903.06;;;15.71;73.32
26699;BME280;14313;50.892;13.756;2022-09-17T11:11:56;96906.53;;;18.39;63.01
26699;BME280;14313;50.892;13.756;2022-09-17T11:14:40;96891.22;;;19.49;57.86
26699;BME280;14313;50.892;13.756;2022-09-17T11:20:01;96892.53;;;19.58;57.13
26699;BME280;14313;50.892;13.756;2022-09-17T11:25:59;96892.75;;;18.17;60.55
26699;BME280;14313;50.892;13.756;2022-09-17T11:28:50;96905.44;;;17.41;63.43
26699;BME280;14313;50.892;13.756;2022-09-17T11:31:44;96909.03;;;18.34;60.53
26699;BME280;14313;50.892;13.756;2022-09-17T11:34:29;96894.41;;;19.69;57.67
26699;BME280;14313;50.892;13.756;2022-09-17T11:37:07;96895.00;;;18.20;59.88
26699;BME280;14313;50.892;13.756;2022-09-17T11:42:30;96889.72;;;16.95;64.06
26699;BME280;14313;50.892;13.756;2022-09-17T11:45:03;96897.19;;;16.73;65.25
26699;BME280;14313;50.892;13.756;2022-09-17T11:47:33;96901.34;;;16.49;66.61
26699;BME280;14313;50.892;13.756;2022-09-17T11:50:10;96899.00;;;16.79;66.58
26699;BME280;14313;50.892;13.756;2022-09-17T11:52:44;96905.53;;;17.28;63.57
26699;BME280;14313;50.892;13.756;2022-09-17T11:55:30;96917.94;;;17.47;63.00
26699;BME280;14313;50.892;13.756;2022-09-17T11:58:08;96919.09;;;16.82;65.17
26699;BME280;14313;50.892;13.756;2022-09-17T12:00:43;96930.22;;;16.46;65.54
26699;BME280;14313;50.892;13.756;2022-09-17T12:03:20;96917.75;;;16.40;67.10
26699;BME280;14313;50.892;13.756;2022-09-17T12:05:56;96922.78;;;16.74;67.13
26699;BME280;14313;50.892;13.756;2022-09-17T12:08:43;96923.28;;;16.38;64.84
26699;BME280;14313;50.892;13.756;2022-09-17T12:11:16;96925.28;;;16.62;61.28
26699;BME280;14313;50.892;13.756;2022-09-17T12:13:48;96936.34;;;16.59;61.40
26699;BME280;14313;50.892;13.756;2022-09-17T12:16:24;96928.78;;;16.43;60.08
26699;BME280;14313;50.892;13.756;2022-09-17T12:19:10;96920.28;;;16.92;59.90
26699;BME280;14313;50.892;13.756;2022-09-17T12:21:39;96915.69;;;17.75;58.09
26699;BME280;14313;50.892;13.756;2022-09-17T12:26:52;96906.16;;;17.55;59.19
26699;BME280;14313;50.892;13.756;2022-09-17T12:37:46;96900.75;;;16.98;62.12
26699;BME280;14313;50.892;13.756;2022-09-17T12:40:23;96906.88;;;16.48;61.88
26699;BME280;14313;50.892;13.756;2022-09-17T12:48:39;96901.41;;;16.23;62.68
26699;BME280;14313;50.892;13.756;2022-09-17T12:51:16;96889.81;;;16.75;61.98
26699;BME280;14313;50.892;13.756;2022-09-17T12:53:54;96886.91;;;17.28;60.97
26699;BME280;14313;50.892;13.756;2022-09-17T12:56:41;96885.94;;;17.47;61.40
26699;BME280;14313;50.892;13.756;2022-09-17T12:59:15;96882.81;;;18.06;58.49
26699;BME280;14313;50.892;13.756;2022-09-17T13:02:00;96867.91;;;18.60;57.78
26699;BME280;14313;50.892;13.756;2022-09-17T13:10:52;96872.53;;;18.28;59.85
26699;BME280;14313;50.892;13.756;2022-09-17T13:22:21;96867.75;;;17.37;63.52
26699;BME280;14313;50.892;13.756;2022-09-17T13:24:39;96861.72;;;19.90;58.30
26699;BME280;14313;50.892;13.756;2022-09-17T13:27:19;96846.13;;;20.57;55.83
26699;BME280;14313;50.892;13.756;2022-09-17T13:37:54;96850.78;;;23.66;46.41
26699;BME280;14313;50.892;13.756;2022-09-17T13:40:31;96860.56;;;22.97;44.02
26699;BME280;14313;50.892;13.756;2022-09-17T13:45:29;96860.59;;;23.77;43.36
26699;BME280;14313;50.892;13.756;2022-09-17T13:48:02;96857.81;;;21.81;47.18
26699;BME280;14313;50.892;13.756;2022-09-17T13:50:34;96868.28;;;20.29;50.18
26699;BME280;14313;50.892;13.756;2022-09-17T13:53:06;96871.63;;;19.37;51.34
26699;BME280;14313;50.892;13.756;2022-09-17T13:55:35;96867.78;;;19.33;51.39
26699;BME280;14313;50.892;13.756;2022-09-17T13:58:04;96860.94;;;19.07;52.78
26699;BME280;14313;50.892;13.756;2022-09-17T14:00:51;96861.75;;;18.41;52.54
26699;BME280;14313;50.892;13.756;2022-09-17T14:03:45;96851.63;;;17.57;53.36
26699;BME280;14313;50.892;13.756;2022-09-17T14:22:00;96840.59;;;21.04;44.85
26699;BME280;14313;50.892;13.756;2022-09-17T14:24:46;96837.56;;;19.32;48.70
26699;BME280;14313;50.892;13.756;2022-09-17T14:27:27;96842.06;;;19.62;48.03
26699;BME280;14313;50.892;13.756;2022-09-17T14:35:36;96836.38;;;20.16;46.75
26699;BME280;14313;50.892;13.756;2022-09-17T14:38:22;96828.69;;;20.08;46.97
26699;BME280;14313;50.892;13.756;2022-09-17T14:40:55;96826.88;;;21.00;45.08
26699;BME280;14313;50.892;13.756;2022-09-17T14:43:40;96830.69;;;21.04;45.16
26699;BME280;14313;50.892;13.756;2022-09-17T14:46:17;96831.72;;;20.47;45.77
26699;BME280;14313;50.892;13.756;2022-09-17T14:48:44;96836.03;;;19.36;48.19
26699;BME280;14313;50.892;13.756;2022-09-17T14:53:49;96833.94;;;18.67;51.47
26699;BME280;14313;50.892;13.756;2022-09-17T14:56:31;96832.72;;;18.63;51.15
26699;BME280;14313;50.892;13.756;2022-09-17T14:58:58;96825.47;;;19.00;51.38
26699;BME280;14313;50.892;13.756;2022-09-17T15:01:26;96827.19;;;18.94;52.63
26699;BME280;14313;50.892;13.756;2022-09-17T15:06:40;96824.09;;;17.38;56.23
26699;BME280;14313;50.892;13.756;2022-09-17T15:09:14;96825.59;;;17.59;55.72
26699;BME280;14313;50.892;13.756;2022-09-17T15:11:41;96816.03;;;17.95;55.63